Time;durP1;ratioP1;P1;durP2;ratioP2;P2;SDS_P1;SDS_P2;PMS_P1;PMS_P2;Temp;Humidity;BMP_temperature;BMP_pressure;BME280_temperature;BME280_humidity;BME280_pressure;Samples;Min_cycle;Max_cycle;Signal;HPM_P1;HPM_P2
2023/09/05 00:00:10;;;;;;;2.80;2.20;;;21.20;99.90;;;;;;7388825;19;20146;-77
2023/09/05 00:02:44;;;;;;;3.70;2.63;;;21.10;99.90;;;;;;7390355;19;20158;-80
2023/09/05 00:05:12;;;;;;;2.85;2.22;;;21.10;99.90;;;;;;7387399;19;20257;-80
2023/09/05 00:07:40;;;;;;;3.75;2.50;;;21.10;99.90;;;;;;7390706;19;20143;-80
2023/09/05 00:10:07;;;;;;;4.72;2.78;;;20.90;99.90;;;;;;7387819;19;20666;-81
2023/09/05 00:12:33;;;;;;;2.88;2.58;;;21.00;99.90;;;;;;7385288;19;20230;-80
2023/09/05 00:14:59;;;;;;;5.53;2.97;;;21.10;99.90;;;;;;7388767;19;20138;-80
2023/09/05 00:17:25;;;;;;;3.47;2.50;;;21.20;99.90;;;;;;7387293;19;20135;-81
2023/09/05 00:19:51;;;;;;;4.47;3.03;;;21.30;99.90;;;;;;7388816;19;20476;-79
2023/09/05 00:22:19;;;;;;;3.30;2.63;;;21.20;99.90;;;;;;7388454;19;20206;-80
2023/09/05 00:24:45;;;;;;;3.22;2.55;;;21.20;99.90;;;;;;7388165;19;20173;-79
2023/09/05 00:27:11;;;;;;;3.67;2.38;;;21.10;99.90;;;;;;7387099;19;20146;-78
2023/09/05 00:29:39;;;;;;;3.03;2.08;;;21.10;99.90;;;;;;7388766;19;20151;-79
2023/09/05 00:32:05;;;;;;;2.80;1.95;;;21.20;99.90;;;;;;7387394;19;20135;-79
2023/09/05 00:34:36;;;;;;;2.55;2.22;;;21.10;99.90;;;;;;7389567;19;20139;-79
2023/09/05 00:37:03;;;;;;;5.20;2.10;;;21.20;99.90;;;;;;7389714;19;20141;-80
2023/09/05 00:39:30;;;;;;;3.22;2.25;;;21.20;99.90;;;;;;7386479;19;20329;-81
2023/09/05 00:41:57;;;;;;;3.17;2.10;;;21.00;99.90;;;;;;7387543;19;20168;-79
2023/09/05 00:44:24;;;;;;;3.30;2.20;;;21.10;99.90;;;;;;7385971;19;20603;-80
2023/09/05 00:46:52;;;;;;;3.60;2.15;;;21.10;99.90;;;;;;7387984;19;20143;-81
2023/09/05 00:49:22;;;;;;;2.97;2.40;;;21.10;99.90;;;;;;7385604;19;20154;-81
2023/09/05 00:51:50;;;;;;;3.85;2.63;;;21.10;99.90;;;;;;7387468;19;20935;-80
2023/09/05 00:54:17;;;;;;;3.17;2.72;;;21.10;99.90;;;;;;7386398;19;20131;-81
2023/09/05 00:56:44;;;;;;;5.60;2.70;;;21.00;99.90;;;;;;7388674;19;20142;-80
2023/09/05 00:59:10;;;;;;;3.40;2.15;;;21.00;99.90;;;;;;7386876;19;20131;-81
2023/09/05 01:01:37;;;;;;;2.92;2.28;;;21.00;99.90;;;;;;7388691;19;20138;-81
2023/09/05 01:04:03;;;;;;;3.25;2.00;;;21.10;99.90;;;;;;7386874;19;20143;-80
2023/09/05 01:06:50;;;;;;;2.45;2.20;;;21.00;99.90;;;;;;7385998;19;20146;-80
2023/09/05 01:09:40;;;;;;;2.65;2.10;;;21.00;99.90;;;;;;7388878;19;20142;-81
2023/09/05 01:12:08;;;;;;;3.95;2.30;;;20.90;99.90;;;;;;7381968;19;20614;-82
2023/09/05 01:14:33;;;;;;;2.25;1.80;;;20.90;99.90;;;;;;7387006;19;20147;-79
2023/09/05 01:17:05;;;;;;;2.72;2.08;;;20.80;99.90;;;;;;7387950;19;20134;-79
2023/09/05 01:19:35;;;;;;;3.45;1.92;;;20.60;99.90;;;;;;7390521;19;20147;-81
2023/09/05 01:22:17;;;;;;;3.35;1.80;;;20.50;99.90;;;;;;7388144;19;20154;-80
2023/09/05 01:24:47;;;;;;;2.95;1.98;;;20.30;99.90;;;;;;7387660;19;20134;-80
2023/09/05 01:27:17;;;;;;;2.75;1.80;;;20.30;99.90;;;;;;7386036;19;20209;-80
2023/09/05 01:29:44;;;;;;;1.90;1.55;;;20.20;99.90;;;;;;7387406;19;20172;-80
2023/09/05 01:32:10;;;;;;;2.20;1.83;;;20.10;99.90;;;;;;7385663;19;20146;-79
2023/09/05 01:34:36;;;;;;;2.85;1.80;;;20.00;99.90;;;;;;7386465;19;20154;-80
2023/09/05 01:37:02;;;;;;;2.17;1.92;;;19.90;99.90;;;;;;7389325;19;20142;-79
2023/09/05 01:39:28;;;;;;;2.40;1.60;;;19.70;99.90;;;;;;7392622;19;20478;-80
2023/09/05 01:41:54;;;;;;;2.70;1.92;;;19.70;99.90;;;;;;7390081;19;20486;-79
2023/09/05 01:44:20;;;;;;;3.55;1.98;;;19.50;99.90;;;;;;7395146;19;20614;-79
2023/09/05 01:46:46;;;;;;;1.85;1.60;;;19.70;99.90;;;;;;7393469;19;20159;-81
2023/09/05 01:49:12;;;;;;;2.47;2.08;;;19.60;99.90;;;;;;7393163;19;20470;-80
2023/09/05 01:51:37;;;;;;;3.50;1.90;;;19.50;99.90;;;;;;7392723;19;20497;-81
2023/09/05 01:54:03;;;;;;;3.28;1.85;;;19.40;99.90;;;;;;7394365;19;20157;-80
2023/09/05 01:56:29;;;;;;;2.70;2.10;;;19.20;99.90;;;;;;7390741;19;20138;-81
2023/09/05 01:58:55;;;;;;;2.70;1.90;;;19.40;99.90;;;;;;7391466;19;20187;-81
2023/09/05 02:01:21;;;;;;;2.50;2.08;;;19.50;99.90;;;;;;7392577;19;20162;-78
2023/09/05 02:03:48;;;;;;;2.65;1.80;;;19.40;99.90;;;;;;7395603;19;20135;-81
2023/09/05 02:06:13;;;;;;;5.13;2.30;;;19.50;99.90;;;;;;7388952;19;20139;-80
2023/09/05 02:08:39;;;;;;;2.88;1.95;;;19.20;99.90;;;;;;7392579;19;20169;-81
2023/09/05 02:11:05;;;;;;;3.85;2.00;;;19.50;99.90;;;;;;7391999;19;20130;-79
2023/09/05 02:13:31;;;;;;;1.70;1.60;;;19.40;99.90;;;;;;7390520;19;20187;-81
2023/09/05 02:15:57;;;;;;;2.92;2.25;;;19.30;99.90;;;;;;7392541;19;20429;-80
2023/09/05 02:18:23;;;;;;;3.05;2.00;;;19.20;99.90;;;;;;7392077;19;20143;-77
2023/09/05 02:20:48;;;;;;;2.55;1.83;;;19.10;99.90;;;;;;7391449;19;20138;-79
2023/09/05 02:23:14;;;;;;;2.20;1.73;;;19.10;99.90;;;;;;7389283;19;20908;-81
2023/09/05 02:25:41;;;;;;;4.53;2.10;;;19.00;99.90;;;;;;7386706;19;20302;-80
2023/09/05 02:28:07;;;;;;;3.15;2.20;;;19.00;99.90;;;;;;7392202;19;20134;-79
2023/09/05 02:30:35;;;;;;;3.58;2.08;;;19.30;99.90;;;;;;7391790;19;20154;-80
2023/09/05 02:33:01;;;;;;;2.38;2.00;;;19.30;99.90;;;;;;7388435;19;20150;-81
2023/09/05 02:35:27;;;;;;;3.20;2.33;;;19.10;99.90;;;;;;7390110;19;20138;-80
2023/09/05 02:37:55;;;;;;;2.65;1.90;;;19.20;99.90;;;;;;7393206;19;20139;-79
2023/09/05 02:40:22;;;;;;;2.38;2.00;;;19.30;99.90;;;;;;7389248;19;20689;-80
2023/09/05 02:42:47;;;;;;;2.95;2.17;;;19.20;99.90;;;;;;7391250;19;20146;-80
2023/09/05 02:45:13;;;;;;;2.80;1.98;;;19.40;99.90;;;;;;7392482;19;20198;-79
2023/09/05 02:47:42;;;;;;;1.98;1.63;;;19.40;99.90;;;;;;7390063;19;20155;-80
2023/09/05 02:50:08;;;;;;;2.80;2.03;;;19.50;99.90;;;;;;7390346;19;20223;-81
2023/09/05 02:52:34;;;;;;;3.47;2.17;;;19.60;99.90;;;;;;7387413;19;20134;-77
2023/09/05 02:55:02;;;;;;;2.63;2.00;;;19.70;99.90;;;;;;7392150;19;20146;-78
2023/09/05 02:57:29;;;;;;;2.03;1.80;;;19.70;99.90;;;;;;7390295;19;20160;-77
2023/09/05 02:59:58;;;;;;;3.95;1.88;;;19.40;99.90;;;;;;7388358;19;20491;-80
2023/09/05 03:02:24;;;;;;;4.15;2.45;;;19.50;99.90;;;;;;7390631;19;20151;-79
2023/09/05 03:04:54;;;;;;;4.22;1.95;;;19.30;99.90;;;;;;7386487;19;20147;-80
2023/09/05 03:07:23;;;;;;;4.10;2.22;;;19.30;99.90;;;;;;7389110;19;20142;-80
2023/09/05 03:09:52;;;;;;;2.60;1.77;;;19.10;99.90;;;;;;7389696;19;20153;-79
2023/09/05 03:12:18;;;;;;;3.15;1.95;;;18.90;99.90;;;;;;7390218;19;20135;-80
2023/09/05 03:14:45;;;;;;;1.88;1.63;;;18.70;99.90;;;;;;7391368;19;20127;-79
2023/09/05 03:17:11;;;;;;;3.15;2.30;;;18.70;99.90;;;;;;7390775;19;20247;-79
2023/09/05 03:19:40;;;;;;;2.03;1.73;;;18.90;99.90;;;;;;7388827;19;20543;-80
2023/09/05 03:22:06;;;;;;;2.72;2.00;;;18.90;99.90;;;;;;7392118;19;20162;-80
2023/09/05 03:24:34;;;;;;;1.98;1.77;;;19.00;99.90;;;;;;7389624;19;20175;-80
2023/09/05 03:26:59;;;;;;;2.17;1.85;;;19.10;99.90;;;;;;7390868;19;20146;-81
2023/09/05 03:29:25;;;;;;;4.93;2.13;;;19.00;99.90;;;;;;7392229;19;20544;-81
2023/09/05 03:31:52;;;;;;;2.85;1.98;;;18.90;99.90;;;;;;7390128;19;20600;-81
2023/09/05 03:34:18;;;;;;;2.17;1.80;;;19.20;99.90;;;;;;7388747;19;20146;-81
2023/09/05 03:36:44;;;;;;;2.58;2.10;;;19.20;99.90;;;;;;7390442;19;20126;-80
2023/09/05 03:39:09;;;;;;;2.63;1.90;;;19.00;99.90;;;;;;7387666;19;20485;-81
2023/09/05 03:41:35;;;;;;;2.75;2.15;;;19.00;99.90;;;;;;7389966;19;20147;-76
2023/09/05 03:44:01;;;;;;;7.00;2.45;;;19.00;99.90;;;;;;7391260;19;20143;-81
2023/09/05 03:46:27;;;;;;;3.13;2.13;;;18.80;99.90;;;;;;7387979;19;20162;-78
2023/09/05 03:48:55;;;;;;;2.70;2.00;;;18.90;99.90;;;;;;7390995;19;20147;-78
2023/09/05 03:51:21;;;;;;;3.53;2.22;;;19.10;99.90;;;;;;7389199;19;20138;-80
2023/09/05 03:53:47;;;;;;;3.22;1.90;;;19.10;99.90;;;;;;7388759;19;20150;-80
2023/09/05 03:56:13;;;;;;;2.22;1.88;;;19.00;99.90;;;;;;7388812;19;20131;-80
2023/09/05 03:58:39;;;;;;;4.60;2.45;;;18.80;99.90;;;;;;7387772;19;20131;-79
2023/09/05 04:01:13;;;;;;;2.78;2.00;;;18.60;99.90;;;;;;7388855;19;20447;-80
2023/09/05 04:03:38;;;;;;;2.33;1.95;;;18.60;99.90;;;;;;7387872;19;20505;-81
2023/09/05 04:06:04;;;;;;;2.72;2.08;;;18.50;99.90;;;;;;7388132;19;20159;-79
2023/09/05 04:08:30;;;;;;;3.20;1.85;;;18.70;99.90;;;;;;7390078;19;20214;-79
2023/09/05 04:11:00;;;;;;;2.40;1.98;;;18.80;99.90;;;;;;7387997;19;20152;-81
2023/09/05 04:13:27;;;;;;;2.42;2.10;;;18.90;99.90;;;;;;7385670;19;20238;-81
2023/09/05 04:15:53;;;;;;;3.50;2.25;;;19.00;99.90;;;;;;7387166;19;20131;-80
2023/09/05 04:18:18;;;;;;;4.80;2.67;;;18.90;99.90;;;;;;7389313;19;20142;-80
2023/09/05 04:20:44;;;;;;;4.85;2.22;;;18.80;99.90;;;;;;7389833;19;20131;-80
2023/09/05 04:23:10;;;;;;;4.80;1.88;;;18.70;99.90;;;;;;7388664;19;20246;-80
2023/09/05 04:25:40;;;;;;;2.90;2.00;;;18.70;99.90;;;;;;7387834;19;20147;-81
2023/09/05 04:28:09;;;;;;;2.63;1.88;;;18.90;99.90;;;;;;7391008;19;20138;-81
2023/09/05 04:30:35;;;;;;;2.90;2.00;;;19.00;99.90;;;;;;7387192;19;20143;-78
2023/09/05 04:33:03;;;;;;;2.38;1.83;;;18.80;99.90;;;;;;7386270;19;20146;-81
2023/09/05 04:35:29;;;;;;;2.33;1.90;;;18.40;99.90;;;;;;7388068;19;20744;-80
2023/09/05 04:37:55;;;;;;;3.97;2.30;;;18.30;99.90;;;;;;7388016;19;20146;-78
2023/09/05 04:40:21;;;;;;;4.57;2.63;;;18.20;99.90;;;;;;7387622;19;20142;-80
2023/09/05 04:42:47;;;;;;;2.90;2.40;;;18.50;99.90;;;;;;7387028;19;20171;-79
2023/09/05 04:45:13;;;;;;;4.13;2.08;;;18.80;99.90;;;;;;7389313;19;20489;-80
2023/09/05 04:47:39;;;;;;;3.75;2.30;;;18.90;99.90;;;;;;7389525;19;20747;-81
2023/09/05 04:50:05;;;;;;;3.63;2.50;;;18.90;99.90;;;;;;7387606;19;20585;-83
2023/09/05 04:52:31;;;;;;;3.15;2.10;;;18.80;99.90;;;;;;7386888;19;20146;-81
2023/09/05 04:54:58;;;;;;;4.57;2.10;;;18.70;99.90;;;;;;7385526;19;20153;-81
2023/09/05 04:57:24;;;;;;;3.13;2.15;;;18.60;99.90;;;;;;7386784;19;20147;-81
2023/09/05 04:59:56;;;;;;;4.35;2.30;;;18.70;99.90;;;;;;7389588;19;20173;-80
2023/09/05 05:02:24;;;;;;;3.95;2.25;;;18.60;99.90;;;;;;7385844;19;20147;-79
2023/09/05 05:04:51;;;;;;;7.32;2.50;;;18.50;99.90;;;;;;7383835;19;20173;-80
2023/09/05 05:07:17;;;;;;;13.10;2.85;;;18.60;99.90;;;;;;7388531;19;20167;-81
2023/09/05 05:09:45;;;;;;;4.53;2.40;;;18.60;99.90;;;;;;7388393;19;20134;-81
2023/09/05 05:12:10;;;;;;;5.55;2.78;;;18.60;99.90;;;;;;7386319;19;20158;-79
2023/09/05 05:14:36;;;;;;;3.92;2.47;;;18.60;99.90;;;;;;7387586;19;20139;-80
2023/09/05 05:17:03;;;;;;;2.80;2.10;;;18.60;99.90;;;;;;7387729;19;20149;-81
2023/09/05 05:19:29;;;;;;;5.95;2.38;;;18.70;99.90;;;;;;7386433;19;20161;-81
2023/09/05 05:21:55;;;;;;;7.85;3.00;;;18.60;99.90;;;;;;7388852;19;21044;-79
2023/09/05 05:24:22;;;;;;;4.10;2.33;;;18.80;99.90;;;;;;7387752;19;20157;-80
2023/09/05 05:26:48;;;;;;;3.83;2.33;;;18.90;99.90;;;;;;7387044;19;20138;-80
2023/09/05 05:29:15;;;;;;;2.83;2.08;;;19.00;99.90;;;;;;7388798;19;20571;-79
2023/09/05 05:31:41;;;;;;;3.63;2.03;;;19.00;99.90;;;;;;7383288;19;20532;-78
2023/09/05 05:34:06;;;;;;;3.90;2.35;;;18.90;99.90;;;;;;7385831;19;20146;-81
2023/09/05 05:36:32;;;;;;;3.33;2.20;;;18.90;99.90;;;;;;7383999;19;20162;-80
2023/09/05 05:39:02;;;;;;;4.70;2.55;;;18.90;99.90;;;;;;7385184;19;20156;-80
2023/09/05 05:41:28;;;;;;;3.90;2.60;;;18.70;99.90;;;;;;7384322;19;20225;-80
2023/09/05 05:43:57;;;;;;;3.58;2.22;;;18.70;99.90;;;;;;7384232;19;20140;-80
2023/09/05 05:46:23;;;;;;;2.88;2.17;;;18.40;99.90;;;;;;7385250;19;20143;-78
2023/09/05 05:48:49;;;;;;;3.33;2.20;;;18.50;99.90;;;;;;7385696;19;20654;-81
2023/09/05 05:51:15;;;;;;;3.67;2.35;;;18.70;99.90;;;;;;7385292;19;20143;-81
2023/09/05 05:53:46;;;;;;;4.35;2.10;;;18.30;99.90;;;;;;7383281;19;20173;-82
2023/09/05 05:56:12;;;;;;;5.03;2.50;;;18.60;99.90;;;;;;7383707;19;20506;-80
2023/09/05 05:58:39;;;;;;;3.33;2.22;;;18.60;99.90;;;;;;7387619;19;20145;-84
2023/09/05 06:01:07;;;;;;;3.97;2.50;;;18.90;99.90;;;;;;7385867;19;20163;-82
2023/09/05 06:03:36;;;;;;;2.92;2.20;;;18.70;99.90;;;;;;7386789;19;20143;-84
2023/09/05 06:06:03;;;;;;;3.78;2.47;;;18.30;99.90;;;;;;7384954;19;20181;-82
2023/09/05 06:08:29;;;;;;;3.33;2.35;;;18.30;99.90;;;;;;7386011;19;20484;-84
2023/09/05 06:10:55;;;;;;;4.88;2.65;;;18.20;99.90;;;;;;7385139;19;20157;-85
2023/09/05 06:13:24;;;;;;;3.47;2.33;;;18.40;99.90;;;;;;7383161;19;20206;-83
2023/09/05 06:15:50;;;;;;;4.70;2.60;;;18.80;99.90;;;;;;7386839;19;20153;-82
2023/09/05 06:18:16;;;;;;;4.60;2.42;;;19.00;99.90;;;;;;7385495;19;20134;-83
2023/09/05 06:20:41;;;;;;;4.32;3.03;;;19.20;99.90;;;;;;7385523;19;20160;-82
2023/09/05 06:23:07;;;;;;;4.93;2.50;;;19.40;99.90;;;;;;7390109;19;20155;-81
2023/09/05 06:25:33;;;;;;;7.85;4.97;;;19.40;99.90;;;;;;7393415;19;20178;-83
2023/09/05 06:27:59;;;;;;;11.57;8.07;;;19.40;99.90;;;;;;7388769;19;20148;-80
2023/09/05 06:30:24;;;;;;;5.53;4.43;;;19.30;99.90;;;;;;7391222;19;20276;-81
2023/09/05 06:32:51;;;;;;;5.45;2.92;;;19.40;99.90;;;;;;7389896;19;20139;-81
2023/09/05 06:35:17;;;;;;;4.20;3.20;;;19.40;99.90;;;;;;7390848;19;20633;-82
2023/09/05 06:37:43;;;;;;;5.15;2.75;;;19.50;99.90;;;;;;7394243;19;20134;-82
2023/09/05 06:40:12;;;;;;;3.67;2.55;;;19.50;99.90;;;;;;7392655;19;20131;-83
2023/09/05 06:42:43;;;;;;;3.80;2.50;;;19.50;99.90;;;;;;7394416;19;20139;-83
2023/09/05 06:45:09;;;;;;;3.70;2.45;;;19.60;99.90;;;;;;7394697;19;20464;-83
2023/09/05 06:47:38;;;;;;;3.25;2.10;;;19.60;99.90;;;;;;7395472;19;20211;-82
2023/09/05 06:50:05;;;;;;;2.90;2.20;;;19.60;99.90;;;;;;7394242;19;20157;-82
2023/09/05 06:52:31;;;;;;;3.47;2.10;;;19.70;99.90;;;;;;7392160;19;20145;-82
2023/09/05 06:54:57;;;;;;;3.35;2.55;;;19.60;99.90;;;;;;7391923;19;20479;-81
2023/09/05 06:57:23;;;;;;;5.63;2.75;;;19.60;99.90;;;;;;7393178;19;20142;-82
2023/09/05 06:59:52;;;;;;;3.33;1.80;;;19.70;99.90;;;;;;7393762;19;20138;-81
2023/09/05 07:02:18;;;;;;;4.15;2.25;;;19.70;99.90;;;;;;7392838;19;20141;-82
2023/09/05 07:04:44;;;;;;;4.15;2.20;;;19.80;99.90;;;;;;7390972;19;20553;-81
2023/09/05 07:07:09;;;;;;;4.60;2.28;;;20.00;99.90;;;;;;7393090;19;20154;-84
2023/09/05 07:09:35;;;;;;;2.88;1.98;;;20.00;99.90;;;;;;7391782;19;20134;-81
2023/09/05 07:12:03;;;;;;;2.80;2.00;;;20.00;99.90;;;;;;7393030;19;20131;-81
2023/09/05 07:14:30;;;;;;;5.53;3.28;;;20.00;99.90;;;;;;7393153;19;20127;-83
2023/09/05 07:16:55;;;;;;;3.25;2.33;;;20.30;99.90;;;;;;7390224;19;20142;-82
2023/09/05 07:19:21;;;;;;;4.38;2.55;;;20.40;99.90;;;;;;7394259;19;20135;-83
2023/09/05 07:21:47;;;;;;;2.75;1.70;;;20.60;99.90;;;;;;7393117;19;20187;-82
2023/09/05 07:24:14;;;;;;;2.65;1.52;;;20.80;99.90;;;;;;7391331;19;20134;-83
2023/09/05 07:26:41;;;;;;;4.10;2.35;;;20.90;99.90;;;;;;7389717;19;20155;-83
2023/09/05 07:29:12;;;;;;;4.38;2.03;;;21.10;99.90;;;;;;7392064;19;20165;-80
2023/09/05 07:31:41;;;;;;;6.28;2.30;;;21.30;99.90;;;;;;7393126;19;20138;-82
2023/09/05 07:34:07;;;;;;;2.50;1.80;;;21.40;99.90;;;;;;7392537;19;20134;-83
2023/09/05 07:36:34;;;;;;;4.57;1.85;;;21.50;99.90;;;;;;7394260;19;20226;-81
2023/09/05 07:39:04;;;;;;;2.40;1.48;;;21.60;99.90;;;;;;7393139;19;20141;-80
2023/09/05 07:41:32;;;;;;;2.38;1.85;;;21.70;99.90;;;;;;7393410;19;20471;-82
2023/09/05 07:43:58;;;;;;;3.50;1.98;;;21.90;99.90;;;;;;7390503;19;20139;-81
2023/09/05 07:46:24;;;;;;;2.55;1.77;;;22.10;99.90;;;;;;7390826;19;20135;-80
2023/09/05 07:48:51;;;;;;;3.40;2.60;;;22.40;99.90;;;;;;7392939;19;20127;-80
2023/09/05 07:51:18;;;;;;;4.22;1.95;;;22.80;99.90;;;;;;7389496;19;20161;-82
2023/09/05 07:53:59;;;;;;;1.40;1.30;;;23.60;99.90;;;;;;7390649;19;20166;-83
2023/09/05 07:56:26;;;;;;;3.17;1.30;;;24.30;99.90;;;;;;7390617;19;20135;-83
2023/09/05 07:58:51;;;;;;;2.00;1.63;;;24.90;99.90;;;;;;7390056;19;20142;-82
2023/09/05 08:01:19;;;;;;;3.00;1.58;;;25.30;99.90;;;;;;7390244;19;20658;-82
2023/09/05 08:03:47;;;;;;;2.00;1.60;;;25.60;99.90;;;;;;7390424;19;20134;-77
2023/09/05 08:06:16;;;;;;;1.83;1.38;;;25.80;99.90;;;;;;7391192;19;20130;-76
2023/09/05 08:08:43;;;;;;;1.67;1.50;;;26.00;99.90;;;;;;7393708;19;20126;-81
2023/09/05 08:11:09;;;;;;;1.83;1.55;;;26.00;99.90;;;;;;7393250;19;20161;-81
2023/09/05 08:13:34;;;;;;;1.70;1.45;;;26.00;99.90;;;;;;7386286;19;20127;-82
2023/09/05 08:16:02;;;;;;;2.20;1.52;;;25.90;99.90;;;;;;7390612;19;20213;-81
2023/09/05 08:18:28;;;;;;;1.52;1.42;;;25.90;99.90;;;;;;7388839;19;20161;-79
2023/09/05 08:20:57;;;;;;;3.70;1.67;;;25.90;99.90;;;;;;7389722;19;20143;-81
2023/09/05 08:23:23;;;;;;;1.88;1.58;;;25.90;99.90;;;;;;7387375;19;20130;-80
2023/09/05 08:25:51;;;;;;;5.90;3.50;;;25.90;99.90;;;;;;7387736;19;20131;-81
2023/09/05 08:28:19;;;;;;;1.70;1.42;;;25.60;99.90;;;;;;7388143;19;20131;-81
2023/09/05 08:30:45;;;;;;;2.28;1.63;;;25.50;99.90;;;;;;7391767;19;20214;-82
2023/09/05 08:33:11;;;;;;;2.63;1.65;;;25.60;99.90;;;;;;7387440;19;20514;-81
2023/09/05 08:35:37;;;;;;;2.70;1.50;;;25.60;99.90;;;;;;7387416;19;20598;-80
2023/09/05 08:38:05;;;;;;;2.70;1.80;;;25.70;99.90;;;;;;7388437;19;20599;-81
2023/09/05 08:40:35;;;;;;;1.73;1.63;;;25.40;99.90;;;;;;7388674;19;20146;-82
2023/09/05 08:43:04;;;;;;;3.28;2.80;;;25.30;99.90;;;;;;7388038;19;20131;-83
2023/09/05 08:45:30;;;;;;;7.00;2.00;;;25.20;99.90;;;;;;7386353;19;20553;-84
2023/09/05 08:47:57;;;;;;;3.33;1.83;;;25.00;99.90;;;;;;7387539;19;20139;-83
2023/09/05 08:50:25;;;;;;;2.13;1.63;;;25.00;99.90;;;;;;7388831;19;20135;-85
2023/09/05 08:52:53;;;;;;;1.65;1.38;;;25.10;99.90;;;;;;7386902;19;20134;-84
2023/09/05 08:55:21;;;;;;;2.08;1.80;;;25.10;99.90;;;;;;7389446;19;20157;-83
2023/09/05 08:57:49;;;;;;;1.77;1.40;;;24.90;99.90;;;;;;7391326;19;20130;-82
2023/09/05 09:00:18;;;;;;;1.33;1.15;;;24.90;99.90;;;;;;7387898;19;20206;-83
2023/09/05 09:02:45;;;;;;;3.67;2.08;;;25.00;99.90;;;;;;7390913;19;20173;-82
2023/09/05 09:05:11;;;;;;;1.85;1.40;;;25.30;99.90;;;;;;7387299;19;20196;-80
2023/09/05 09:07:37;;;;;;;3.10;2.47;;;25.30;99.90;;;;;;7389697;19;20161;-82
2023/09/05 09:10:21;;;;;;;2.50;1.83;;;25.20;99.90;;;;;;7387510;19;20556;-84
2023/09/05 09:12:54;;;;;;;1.52;1.25;;;25.20;99.90;;;;;;7384955;19;20138;-82
2023/09/05 09:15:26;;;;;;;1.88;1.33;;;25.10;99.90;;;;;;7393728;19;20142;-82
2023/09/05 09:17:54;;;;;;;3.63;1.50;;;25.00;99.90;;;;;;7390436;19;20138;-83
2023/09/05 09:20:22;;;;;;;1.90;1.60;;;25.30;99.90;;;;;;7391718;19;20610;-83
2023/09/05 09:22:50;;;;;;;1.23;1.10;;;25.40;99.90;;;;;;7389373;19;20142;-83
2023/09/05 09:25:22;;;;;;;1.50;1.30;;;25.60;99.90;;;;;;7386872;19;20154;-82
2023/09/05 09:27:57;;;;;;;1.75;1.55;;;25.50;99.90;;;;;;7386217;19;20226;-83
2023/09/05 09:30:24;;;;;;;4.13;1.40;;;25.60;99.90;;;;;;7389618;19;20141;-82
2023/09/05 09:32:51;;;;;;;2.15;1.40;;;25.50;99.90;;;;;;7386582;19;20157;-83
2023/09/05 09:35:17;;;;;;;2.65;1.30;;;25.00;99.90;;;;;;7384700;19;20146;-81
2023/09/05 09:37:48;;;;;;;1.60;1.30;;;25.00;99.90;;;;;;7388547;19;20142;-82
2023/09/05 09:40:16;;;;;;;2.17;1.50;;;25.00;99.90;;;;;;7387556;19;20187;-82
2023/09/05 09:42:47;;;;;;;2.95;1.58;;;25.00;99.90;;;;;;7388283;19;20167;-80
2023/09/05 09:45:13;;;;;;;1.33;1.23;;;25.00;99.90;;;;;;7385084;19;20507;-81
2023/09/05 09:47:48;;;;;;;1.50;1.25;;;25.20;99.90;;;;;;7389077;19;20146;-81
2023/09/05 09:50:14;;;;;;;1.52;1.20;;;25.20;99.90;;;;;;7387759;19;20594;-82
2023/09/05 09:52:44;;;;;;;1.10;1.00;;;25.10;99.90;;;;;;7387675;19;20161;-82
2023/09/05 09:55:13;;;;;;;2.97;1.40;;;25.20;99.90;;;;;;7388464;19;20482;-81
2023/09/05 09:58:01;;;;;;;2.03;1.30;;;25.10;99.90;;;;;;7389580;19;20142;-82
2023/09/05 10:00:28;;;;;;;2.03;1.20;;;25.20;99.90;;;;;;7397196;19;20141;-82
2023/09/05 10:02:55;;;;;;;2.13;1.75;;;25.10;99.90;;;;;;7394732;19;20485;-83
2023/09/05 10:05:24;;;;;;;2.28;1.63;;;25.10;99.90;;;;;;7392222;19;20178;-81
2023/09/05 10:07:52;;;;;;;1.42;1.08;;;25.30;99.90;;;;;;7392865;19;20250;-82
2023/09/05 10:10:19;;;;;;;2.17;1.33;;;25.50;99.90;;;;;;7394890;19;20272;-83
2023/09/05 10:12:45;;;;;;;1.40;1.20;;;25.60;99.90;;;;;;7391908;19;20502;-79
2023/09/05 10:15:13;;;;;;;1.42;1.00;;;25.40;99.90;;;;;;7395860;19;20154;-82
2023/09/05 10:17:41;;;;;;;2.72;1.30;;;25.50;99.90;;;;;;7394029;19;20134;-82
2023/09/05 10:20:09;;;;;;;2.22;1.73;;;25.60;99.90;;;;;;7392425;19;20284;-82
2023/09/05 10:25:47;;;;;;;1.63;1.35;;;26.10;99.90;;;;;;7391051;19;20162;-83
2023/09/05 10:28:14;;;;;;;1.83;1.30;;;26.00;99.90;;;;;;7393238;19;20164;-83
2023/09/05 10:30:47;;;;;;;1.60;1.10;;;26.00;99.90;;;;;;7396318;19;20138;-85
2023/09/05 10:33:16;;;;;;;1.52;1.38;;;25.90;99.90;;;;;;7394537;19;20166;-84
2023/09/05 10:35:45;;;;;;;2.00;1.25;;;25.90;99.90;;;;;;7393738;19;20133;-83
2023/09/05 10:38:14;;;;;;;2.28;1.15;;;26.10;99.90;;;;;;7393212;19;20635;-83
2023/09/05 10:40:40;;;;;;;1.48;1.13;;;26.10;99.90;;;;;;7394622;19;20157;-83
2023/09/05 10:43:08;;;;;;;1.33;1.23;;;26.30;99.90;;;;;;7394348;19;20571;-82
2023/09/05 10:45:37;;;;;;;1.80;1.00;;;26.40;99.90;;;;;;7395341;19;20169;-83
2023/09/05 10:48:09;;;;;;;2.58;1.17;;;26.30;99.90;;;;;;7391819;19;20149;-82
2023/09/05 10:51:07;;;;;;;2.00;1.30;;;26.30;99.90;;;;;;7392672;19;20158;-83
2023/09/05 10:53:38;;;;;;;1.55;1.30;;;26.50;99.90;;;;;;7389373;19;20591;-83
2023/09/05 10:56:05;;;;;;;1.45;1.05;;;26.60;99.90;;;;;;7390901;19;20153;-84
2023/09/05 10:58:43;;;;;;;2.95;1.58;;;26.70;99.90;;;;;;7396836;19;20169;-81
2023/09/05 11:01:43;;;;;;;1.55;1.13;;;26.70;99.80;;;;;;7391775;19;20138;-85
2023/09/05 11:04:20;;;;;;;1.15;1.05;;;26.60;99.80;;;;;;7389553;19;20239;-84
2023/09/05 11:06:58;;;;;;;2.60;1.05;;;26.70;99.60;;;;;;7391309;19;20183;-81
2023/09/05 11:09:26;;;;;;;3.15;1.40;;;26.60;99.90;;;;;;7391706;19;20157;-82
2023/09/05 11:11:55;;;;;;;1.75;1.30;;;26.50;99.80;;;;;;7392522;19;20157;-85
2023/09/05 11:14:31;;;;;;;2.50;1.50;;;26.40;99.70;;;;;;7391240;19;20139;-82
2023/09/05 11:16:57;;;;;;;2.08;1.30;;;26.60;99.90;;;;;;7397531;19;20154;-83
2023/09/05 11:19:49;;;;;;;1.70;1.10;;;26.60;99.90;;;;;;7391577;19;20139;-81
2023/09/05 11:22:21;;;;;;;1.65;1.38;;;26.70;99.90;;;;;;7393989;19;20202;-81
2023/09/05 11:25:00;;;;;;;4.78;1.52;;;26.80;99.90;;;;;;7392486;19;20472;-78
2023/09/05 11:27:29;;;;;;;1.73;1.15;;;26.80;99.90;;;;;;7390744;19;20166;-81
2023/09/05 11:29:58;;;;;;;2.42;1.50;;;26.90;99.90;;;;;;7390953;19;20134;-84
2023/09/05 11:32:36;;;;;;;2.28;1.42;;;26.90;99.70;;;;;;7390067;19;20206;-83
2023/09/05 11:35:05;;;;;;;2.35;1.45;;;26.90;99.50;;;;;;7390794;19;20173;-83
2023/09/05 11:37:31;;;;;;;1.65;1.33;;;26.90;99.80;;;;;;7391147;19;20844;-82
2023/09/05 11:40:12;;;;;;;1.50;1.15;;;27.00;99.80;;;;;;7390988;19;20142;-83
2023/09/05 11:42:38;;;;;;;1.23;1.08;;;27.00;99.90;;;;;;7392035;19;20153;-81
2023/09/05 11:45:15;;;;;;;1.85;1.40;;;27.10;99.30;;;;;;7389216;19;20146;-81
2023/09/05 11:47:40;;;;;;;2.17;1.50;;;27.10;99.20;;;;;;7390320;19;20466;-80
2023/09/05 11:50:07;;;;;;;1.65;1.42;;;27.20;98.70;;;;;;7391609;19;20162;-84
2023/09/05 11:52:33;;;;;;;4.65;1.35;;;27.10;98.90;;;;;;7389551;19;20174;-85
2023/09/05 11:55:06;;;;;;;1.40;1.20;;;27.20;98.80;;;;;;7393611;19;20135;-86
2023/09/05 11:57:33;;;;;;;1.23;1.13;;;27.30;98.70;;;;;;7390057;19;20165;-82
2023/09/05 11:59:59;;;;;;;1.95;1.10;;;27.20;98.40;;;;;;7389022;19;20887;-82
2023/09/05 12:02:26;;;;;;;1.98;1.20;;;27.40;97.90;;;;;;7390419;19;21042;-83
2023/09/05 12:04:52;;;;;;;1.77;1.35;;;27.40;97.80;;;;;;7389164;19;20174;-82
2023/09/05 12:07:23;;;;;;;2.40;2.05;;;27.40;97.70;;;;;;7388645;19;20143;-79
2023/09/05 12:09:50;;;;;;;1.50;1.30;;;27.30;97.40;;;;;;7390513;19;20138;-84
2023/09/05 12:12:19;;;;;;;2.92;1.88;;;27.20;97.90;;;;;;7388988;19;20135;-83
2023/09/05 12:14:59;;;;;;;2.97;1.30;;;27.30;97.80;;;;;;7391163;19;20919;-85
2023/09/05 12:17:27;;;;;;;1.20;1.10;;;27.30;97.80;;;;;;7391386;19;20131;-79
2023/09/05 12:19:55;;;;;;;2.08;1.20;;;27.30;97.90;;;;;;7389427;19;20146;-78
2023/09/05 12:22:30;;;;;;;1.13;0.85;;;27.30;97.30;;;;;;7389093;19;20472;-79
2023/09/05 12:25:28;;;;;;;2.40;1.10;;;27.50;97.00;;;;;;7387900;19;20134;-79
2023/09/05 12:28:14;;;;;;;1.95;1.40;;;27.60;97.20;;;;;;7387406;19;20147;-81
2023/09/05 12:30:40;;;;;;;1.17;1.00;;;27.50;96.70;;;;;;7390675;19;20666;-81
2023/09/05 12:33:06;;;;;;;1.65;1.08;;;27.40;97.30;;;;;;7389112;19;20177;-81
2023/09/05 12:35:32;;;;;;;1.88;1.15;;;27.40;97.50;;;;;;7389031;19;20150;-80
2023/09/05 12:38:00;;;;;;;3.95;1.30;;;27.60;98.20;;;;;;7388939;19;20591;-79
2023/09/05 12:40:27;;;;;;;2.88;1.48;;;27.80;97.20;;;;;;7390994;19;20442;-79
2023/09/05 12:42:55;;;;;;;1.00;0.90;;;27.70;96.50;;;;;;7392402;19;20453;-79
2023/09/05 12:45:21;;;;;;;1.77;1.67;;;27.70;97.40;;;;;;7389182;19;20601;-82
2023/09/05 12:47:51;;;;;;;1.70;1.33;;;27.70;99.10;;;;;;7389834;19;20138;-80
2023/09/05 12:50:22;;;;;;;1.23;0.93;;;27.70;98.30;;;;;;7388682;19;20467;-78
2023/09/05 12:52:49;;;;;;;1.63;1.30;;;27.70;98.40;;;;;;7384648;19;20154;-79
2023/09/05 12:55:15;;;;;;;1.73;1.48;;;27.80;98.30;;;;;;7390472;19;20142;-78